createdAt,value
2022-09-05T00:01:55.143Z,64.53
2022-09-05T00:04:43.434Z,64.65
2022-09-05T00:07:58.426Z,65.02
2022-09-05T00:10:12.453Z,64.83
2022-09-05T00:12:40.332Z,64.82
2022-09-05T00:15:26.312Z,65.39
2022-09-05T00:18:44.086Z,65.39
2022-09-05T00:24:27.645Z,65.42
2022-09-05T00:24:34.104Z,65.58
2022-09-05T00:27:07.382Z,65.78
2022-09-05T00:31:07.045Z,65.45
2022-09-05T00:33:26.364Z,65.58
2022-09-05T00:36:23.212Z,65.18
2022-09-05T00:39:00.742Z,64.86
2022-09-05T00:41:28.972Z,65.32
2022-09-05T00:44:03.040Z,65.56
2022-09-05T00:46:34.353Z,66.13
2022-09-05T00:49:22.612Z,65.59
2022-09-05T00:51:58.372Z,66.38
2022-09-05T00:55:02.581Z,66.03
2022-09-05T00:58:05.853Z,66.31
2022-09-05T01:00:53.074Z,66.36
2022-09-05T01:03:26.377Z,65.94
2022-09-05T01:06:14.053Z,66.24
2022-09-05T01:08:56.374Z,66.17
2022-09-05T01:11:56.492Z,66.32
2022-09-05T01:14:48.973Z,66.53
2022-09-05T01:18:02.394Z,66.27
2022-09-05T01:20:44.693Z,66.22
2022-09-05T01:23:23.853Z,66.70
2022-09-05T01:26:02.761Z,66.41
2022-09-05T01:29:15.589Z,66.47
2022-09-05T01:31:57.254Z,66.16
2022-09-05T01:34:43.316Z,65.52
2022-09-05T01:37:37.693Z,64.96
2022-09-05T01:40:24.287Z,65.13
2022-09-05T01:42:54.314Z,65.43
2022-09-05T01:45:38.708Z,65.19
2022-09-05T01:48:30.540Z,65.31
2022-09-05T01:51:28.285Z,65.55
2022-09-05T01:54:23.675Z,65.49
2022-09-05T01:57:03.072Z,65.17
2022-09-05T01:59:48.893Z,65.74
2022-09-05T02:02:50.699Z,65.59
2022-09-05T02:05:52.415Z,65.52
2022-09-05T02:08:41.818Z,65.77
2022-09-05T02:11:12.996Z,65.91
2022-09-05T02:13:50.413Z,65.65
2022-09-05T02:16:42.375Z,65.65
2022-09-05T02:19:09.476Z,65.84
2022-09-05T02:21:56.115Z,66.03
2022-09-05T02:24:27.736Z,65.49
2022-09-05T02:26:54.672Z,65.59
2022-09-05T02:29:31.233Z,65.90
2022-09-05T02:32:15.472Z,66.10
2022-09-05T02:35:03.581Z,65.55
2022-09-05T02:39:07.522Z,65.80
2022-09-05T02:45:08.797Z,65.73
2022-09-05T02:45:18.878Z,65.46
2022-09-05T02:47:26.533Z,65.80
2022-09-05T02:53:35.105Z,65.67
2022-09-05T02:57:32.962Z,66.11
2022-09-05T02:57:35.754Z,66.16
2022-09-05T02:59:16.153Z,66.13
2022-09-05T03:02:27.121Z,66.35
2022-09-05T03:05:18.594Z,66.28
2022-09-05T03:08:10.835Z,66.42
2022-09-05T03:11:02.913Z,66.18
2022-09-05T03:14:18.698Z,65.81
2022-09-05T03:17:24.075Z,65.74
2022-09-05T03:20:12.214Z,66.09
2022-09-05T03:23:11.776Z,65.96
2022-09-05T03:26:05.852Z,66.03
2022-09-05T03:29:30.232Z,66.04
2022-09-05T03:32:31.692Z,66.19
2022-09-05T03:35:20.321Z,65.90
2022-09-05T03:38:08.841Z,65.95
2022-09-05T03:40:50.453Z,65.91
2022-09-05T03:43:46.001Z,65.75
2022-09-05T03:46:54.053Z,65.51
2022-09-05T03:52:59.694Z,65.59
2022-09-05T03:57:11.362Z,65.74
2022-09-05T03:57:13.504Z,66.09
2022-09-05T03:59:26.613Z,65.88
2022-09-05T04:05:41.939Z,65.72
2022-09-05T04:08:18.930Z,65.90
2022-09-05T04:08:34.328Z,65.80
2022-09-05T04:11:05.847Z,65.72
2022-09-05T04:13:45.869Z,65.94
2022-09-05T04:16:22.560Z,66.24
2022-09-05T04:18:55.150Z,66.55
2022-09-05T04:21:32.728Z,66.73
2022-09-05T04:24:07.779Z,66.41
2022-09-05T04:27:27.712Z,66.21
2022-09-05T04:30:38.845Z,66.59
2022-09-05T04:33:33.511Z,66.70
2022-09-05T04:36:17.878Z,66.98
2022-09-05T04:38:46.245Z,66.96
2022-09-05T04:41:18.051Z,67.40
2022-09-05T04:43:53.409Z,67.72
2022-09-05T04:46:29.930Z,67.52
2022-09-05T04:48:56.858Z,67.79
2022-09-05T04:52:00.158Z,67.73
2022-09-05T04:55:01.350Z,67.49
2022-09-05T04:57:50.742Z,66.62
2022-09-05T05:06:05.242Z,66.96
2022-09-05T05:06:08.720Z,66.71
2022-09-05T05:06:45.387Z,67.02
2022-09-05T05:09:22.115Z,67.12
2022-09-05T05:17:53.719Z,66.60
2022-09-05T05:18:10.385Z,66.28
2022-09-05T05:18:39.606Z,66.08
2022-09-05T05:20:55.901Z,66.01
2022-09-05T05:23:34.580Z,65.49
2022-09-05T05:26:04.491Z,65.98
2022-09-05T05:29:00.801Z,65.77
2022-09-05T05:31:31.851Z,65.49
2022-09-05T05:34:06.138Z,65.09
2022-09-05T05:37:08.934Z,65.33
2022-09-05T05:39:44.706Z,64.91
2022-09-05T05:42:21.515Z,64.96
2022-09-05T05:44:58.022Z,65.44
2022-09-05T05:47:34.804Z,65.47
2022-09-05T05:50:11.771Z,65.32
2022-09-05T05:53:33.449Z,65.81
2022-09-05T05:56:44.045Z,65.80
2022-09-05T05:59:25.053Z,65.53
2022-09-05T06:02:29.695Z,64.72
2022-09-05T06:05:18.105Z,64.84
2022-09-05T06:09:57.513Z,64.96
2022-09-05T06:14:56.533Z,64.63
2022-09-05T06:14:57.886Z,64.94
2022-09-05T06:17:28.030Z,64.24
2022-09-05T06:22:06.275Z,64.48
2022-09-05T06:23:39.517Z,64.63
2022-09-05T06:26:22.297Z,64.25
2022-09-05T06:29:10.625Z,64.43
2022-09-05T06:31:59.102Z,63.96
2022-09-05T06:35:04.506Z,63.75
2022-09-05T06:37:53.218Z,63.73
2022-09-05T06:40:23.152Z,63.46
2022-09-05T06:42:58.959Z,63.41
2022-09-05T06:45:58.502Z,63.35
2022-09-05T06:49:30.643Z,63.11
2022-09-05T06:52:13.090Z,62.64
2022-09-05T06:55:06.475Z,62.35
2022-09-05T06:58:18.256Z,62.57
2022-09-05T07:00:50.977Z,62.14
2022-09-05T07:03:26.888Z,61.91
2022-09-05T07:05:56.845Z,61.01
2022-09-05T07:08:44.634Z,61.28
2022-09-05T07:11:36.856Z,60.79
2022-09-05T07:14:14.169Z,60.62
2022-09-05T07:16:44.431Z,60.38
2022-09-05T07:19:27.710Z,59.61
2022-09-05T07:22:47.860Z,59.92
2022-09-05T07:25:37.218Z,60.16
2022-09-05T07:28:27.032Z,59.13
2022-09-05T07:31:03.173Z,58.68
2022-09-05T07:33:31.733Z,58.76
2022-09-05T07:36:10.165Z,59.02
2022-09-05T07:38:54.905Z,58.09
2022-09-05T07:41:28.595Z,58.17
2022-09-05T07:44:03.384Z,58.23
2022-09-05T07:46:39.044Z,57.72
2022-09-05T07:49:11.346Z,57.36
2022-09-05T07:56:52.289Z,57.25
2022-09-05T07:56:56.046Z,56.88
2022-09-05T07:57:50.900Z,56.24
2022-09-05T08:00:26.786Z,56.85
2022-09-05T08:02:59.536Z,56.17
2022-09-05T08:05:37.526Z,56.63
2022-09-05T08:08:10.377Z,56.32
2022-09-05T08:11:22.018Z,56.40
2022-09-05T08:13:46.223Z,55.52
2022-09-05T08:16:19.466Z,55.42
2022-09-05T08:19:01.726Z,55.65
2022-09-05T08:21:43.945Z,54.91
2022-09-05T08:24:25.448Z,53.61
2022-09-05T08:27:31.516Z,55.10
2022-09-05T08:30:24.640Z,52.98
2022-09-05T08:33:11.058Z,53.23
2022-09-05T08:35:45.785Z,52.19
2022-09-05T08:38:15.728Z,52.91
2022-09-05T08:40:53.184Z,53.32
2022-09-05T08:46:35.828Z,52.46
2022-09-05T08:46:53.323Z,52.22
2022-09-05T08:49:49.624Z,52.21
2022-09-05T08:52:40.613Z,51.76
2022-09-05T08:55:25.794Z,51.51
2022-09-05T08:58:21.305Z,50.86
2022-09-05T09:01:06.823Z,51.01
2022-09-05T09:04:39.977Z,50.85
2022-09-05T09:07:50.893Z,49.83
2022-09-05T09:10:39.514Z,49.25
2022-09-05T09:13:28.055Z,48.80
2022-09-05T09:16:06.759Z,49.38
2022-09-05T09:18:53.824Z,48.79
2022-09-05T09:21:31.915Z,49.18
2022-09-05T09:24:07.632Z,49.42
2022-09-05T09:26:43.002Z,48.02
2022-09-05T09:29:12.666Z,49.23
2022-09-05T09:31:56.635Z,48.74
2022-09-05T09:34:26.557Z,48.00
2022-09-05T09:37:08.805Z,47.88
2022-09-05T09:40:14.433Z,47.65
2022-09-05T09:43:07.306Z,48.29
2022-09-05T09:45:59.114Z,47.78
2022-09-05T09:49:03.745Z,47.72
2022-09-05T09:51:51.814Z,47.80
2022-09-05T09:54:49.805Z,47.77
2022-09-05T09:57:51.545Z,48.36
2022-09-05T10:00:21.644Z,48.40
2022-09-05T10:10:36.375Z,48.62
2022-09-05T10:10:36.454Z,48.19
2022-09-05T10:10:43.853Z,47.99
2022-09-05T10:12:31.998Z,48.34
2022-09-05T10:15:18.595Z,48.16
2022-09-05T10:18:10.687Z,47.53
2022-09-05T10:21:16.240Z,47.80
2022-09-05T10:24:20.848Z,47.72
2022-09-05T10:27:26.706Z,48.04
2022-09-05T10:30:08.153Z,48.49
2022-09-05T10:35:11.772Z,47.66
2022-09-05T10:35:40.870Z,47.74
2022-09-05T10:38:21.603Z,48.26
2022-09-05T10:41:19.798Z,48.27
2022-09-05T10:44:04.707Z,47.79
2022-09-05T10:47:10.308Z,48.03
2022-09-05T10:49:44.710Z,47.08
2022-09-05T10:52:18.655Z,46.81
2022-09-05T10:55:15.602Z,47.08
2022-09-05T10:57:54.616Z,46.61
2022-09-05T11:02:28.887Z,45.45
2022-09-05T11:13:26.894Z,45.59
2022-09-05T11:16:04.561Z,45.66
2022-09-05T11:18:56.435Z,46.96
2022-09-05T11:21:30.706Z,46.12
2022-09-05T11:24:44.978Z,46.09
2022-09-05T11:27:36.305Z,46.48
2022-09-05T11:30:41.194Z,46.30
2022-09-05T11:37:54.663Z,46.29
2022-09-05T11:40:02.008Z,46.02
2022-09-05T11:40:09.969Z,46.50
2022-09-05T11:42:42.084Z,45.92
2022-09-05T11:45:08.925Z,45.88
2022-09-05T11:47:54.245Z,46.58
2022-09-05T11:50:58.774Z,46.53
2022-09-05T11:53:46.794Z,45.99
2022-09-05T11:56:39.692Z,46.13
2022-09-05T11:59:32.763Z,46.21
2022-09-05T12:02:24.095Z,45.73
2022-09-05T12:05:48.701Z,45.78
2022-09-05T12:08:21.422Z,45.69
2022-09-05T12:11:31.644Z,45.50
2022-09-05T12:14:39.525Z,45.02
2022-09-05T12:17:17.208Z,45.20
2022-09-05T12:20:16.971Z,45.49
2022-09-05T12:22:54.090Z,46.14
2022-09-05T12:29:26.428Z,45.71
2022-09-05T12:32:41.777Z,45.01
2022-09-05T12:36:10.694Z,45.40
2022-09-05T12:40:56.977Z,45.43
2022-09-05T12:41:38.837Z,45.18
2022-09-05T12:42:08.417Z,45.83
2022-09-05T12:43:53.095Z,45.48
2022-09-05T12:46:27.685Z,44.96
2022-09-05T12:49:07.523Z,45.18
2022-09-05T12:51:46.992Z,44.58
2022-09-05T12:54:34.700Z,44.34
2022-09-05T12:59:34.827Z,44.51
2022-09-05T13:03:06.706Z,44.24
2022-09-05T13:03:28.361Z,44.59
2022-09-05T13:06:25.181Z,44.27
2022-09-05T13:09:00.996Z,44.65
2022-09-05T13:14:49.267Z,44.67
2022-09-05T13:14:53.961Z,44.54
2022-09-05T13:17:14.215Z,44.47
2022-09-05T13:19:47.657Z,44.90
2022-09-05T13:22:16.584Z,45.57
2022-09-05T13:24:50.725Z,45.54
2022-09-05T13:27:25.965Z,45.10
2022-09-05T13:30:54.842Z,45.27
2022-09-05T13:38:01.419Z,45.64
2022-09-05T13:38:20.787Z,45.72
2022-09-05T13:38:56.066Z,45.79
2022-09-05T13:41:30.777Z,46.40
2022-09-05T13:44:27.546Z,46.10
2022-09-05T13:47:29.768Z,46.48
2022-09-05T13:50:27.866Z,46.77
2022-09-05T13:53:00.805Z,46.85
2022-09-05T13:55:38.232Z,47.50
2022-09-05T13:58:16.986Z,47.47
2022-09-05T14:00:59.596Z,47.46
2022-09-05T14:03:46.771Z,46.59
2022-09-05T14:06:47.168Z,47.14
2022-09-05T14:09:38.951Z,46.91
2022-09-05T14:12:29.717Z,46.25
2022-09-05T14:15:13.475Z,45.05
2022-09-05T14:18:21.138Z,45.11
2022-09-05T14:21:16.435Z,45.20
2022-09-05T14:23:56.281Z,45.46
2022-09-05T14:26:47.455Z,45.71
2022-09-05T14:29:21.164Z,45.46
2022-09-05T14:37:50.191Z,45.28
2022-09-05T14:37:55.378Z,45.64
2022-09-05T14:38:14.475Z,44.09
2022-09-05T14:41:19.634Z,42.87
2022-09-05T14:43:58.685Z,42.52
2022-09-05T14:46:41.638Z,42.94
2022-09-05T14:49:18.298Z,41.57
2022-09-05T14:51:51.035Z,40.19
2022-09-05T15:02:43.607Z,34.90
2022-09-05T15:02:46.250Z,37.02
2022-09-05T15:03:03.847Z,34.65
2022-09-05T15:05:31.815Z,34.05
2022-09-05T15:08:08.365Z,35.46
2022-09-05T15:12:24.352Z,35.52
2022-09-05T15:14:04.155Z,36.70
2022-09-05T15:16:35.803Z,37.31
2022-09-05T15:19:03.246Z,38.26
2022-09-05T15:21:38.427Z,39.45
2022-09-05T15:24:25.074Z,39.56
2022-09-05T15:26:53.145Z,40.65
2022-09-05T15:29:29.274Z,40.86
2022-09-05T15:32:14.867Z,41.07
2022-09-05T15:34:41.858Z,41.37
2022-09-05T15:37:22.835Z,41.92
2022-09-05T15:40:07.618Z,42.40
2022-09-05T15:42:55.325Z,43.61
2022-09-05T15:45:36.405Z,43.71
2022-09-05T15:48:12.575Z,43.29
2022-09-05T15:50:46.244Z,42.69
2022-09-05T15:53:24.849Z,43.00
2022-09-05T15:55:59.868Z,44.00
2022-09-05T15:58:32.790Z,43.40
2022-09-05T16:01:49.881Z,44.19
2022-09-05T16:10:26.772Z,44.79
2022-09-05T16:10:40.814Z,44.71
2022-09-05T16:10:42.751Z,44.21
2022-09-05T16:12:42.671Z,45.04
2022-09-05T16:16:28.496Z,45.13
2022-09-05T16:23:21.114Z,45.56
2022-09-05T16:23:32.903Z,46.62
2022-09-05T16:24:04.864Z,47.01
2022-09-05T16:26:40.297Z,47.72
2022-09-05T16:29:13.444Z,47.45
2022-09-05T16:31:51.331Z,48.08
2022-09-05T16:34:31.236Z,48.21
2022-09-05T16:37:08.891Z,48.75
2022-09-05T16:39:42.882Z,48.67
2022-09-05T16:42:47.909Z,49.29
2022-09-05T16:45:33.093Z,49.66
2022-09-05T16:48:12.050Z,50.08
2022-09-05T16:51:00.234Z,50.11
2022-09-05T16:53:58.589Z,50.17
2022-09-05T16:56:30.253Z,50.44
2022-09-05T16:59:17.473Z,50.59
2022-09-05T17:02:07.247Z,51.64
2022-09-05T17:05:05.974Z,51.62
2022-09-05T17:07:42.056Z,51.71
2022-09-05T17:10:18.606Z,52.18
2022-09-05T17:12:46.754Z,52.64
2022-09-05T17:15:16.743Z,53.11
2022-09-05T17:18:20.826Z,53.53
2022-09-05T17:20:38.108Z,53.77
2022-09-05T17:29:20.447Z,54.24
2022-09-05T17:29:24.588Z,54.53
2022-09-05T17:29:26.024Z,54.42
2022-09-05T17:31:55.134Z,54.46
2022-09-05T17:34:49.893Z,54.45
2022-09-05T17:38:11.426Z,54.80
2022-09-05T17:41:00.564Z,54.93
2022-09-05T17:43:32.372Z,55.24
2022-09-05T17:46:11.745Z,54.96
2022-09-05T17:49:03.311Z,55.61
2022-09-05T17:51:51.739Z,55.42
2022-09-05T17:54:33.812Z,55.83
2022-09-05T17:57:26.882Z,55.97
2022-09-05T18:00:02.272Z,56.07
2022-09-05T18:02:56.384Z,56.03
2022-09-05T18:05:54.897Z,56.16
2022-09-05T18:08:52.651Z,56.09
2022-09-05T18:11:25.843Z,56.19
2022-09-05T18:14:03.476Z,56.27
2022-09-05T18:16:43.723Z,56.13
2022-09-05T18:19:37.220Z,56.60
2022-09-05T18:22:20.154Z,56.81
2022-09-05T18:24:57.765Z,56.68
2022-09-05T18:28:04.645Z,56.86
2022-09-05T18:33:53.489Z,56.62
2022-09-05T18:36:32.434Z,56.85
2022-09-05T18:39:24.795Z,57.05
2022-09-05T18:42:25.591Z,57.03
2022-09-05T18:45:00.000Z,57.39
2022-09-05T18:47:51.054Z,57.18
2022-09-05T18:50:27.964Z,57.29
2022-09-05T18:53:09.135Z,57.51
2022-09-05T18:56:11.093Z,57.46
2022-09-05T18:58:34.538Z,57.78
2022-09-05T19:01:28.541Z,57.57
2022-09-05T19:04:01.968Z,57.49
2022-09-05T19:06:35.862Z,57.68
2022-09-05T19:09:09.772Z,57.44
2022-09-05T19:11:53.942Z,57.68
2022-09-05T19:14:55.356Z,57.56
2022-09-05T19:17:34.352Z,58.09
2022-09-05T19:20:30.764Z,57.57
2022-09-05T19:23:11.031Z,57.58
2022-09-05T19:25:45.104Z,57.56
2022-09-05T19:35:34.589Z,57.96
2022-09-05T19:36:52.792Z,58.05
2022-09-05T19:37:09.435Z,58.20
2022-09-05T19:37:28.865Z,58.30
2022-09-05T19:43:07.422Z,57.94
2022-09-05T19:47:41.502Z,57.96
2022-09-05T19:47:46.682Z,58.00
2022-09-05T19:49:08.519Z,58.22
2022-09-05T19:51:37.163Z,58.43
2022-09-05T19:54:05.999Z,57.90
2022-09-05T19:56:43.185Z,58.09
2022-09-05T19:59:22.664Z,58.32
2022-09-05T20:01:52.084Z,58.63
2022-09-05T20:04:20.865Z,58.27
2022-09-05T20:06:49.961Z,58.78
2022-09-05T20:09:21.465Z,58.54
2022-09-05T20:11:58.228Z,58.83
2022-09-05T20:14:31.220Z,58.75
2022-09-05T20:17:17.266Z,59.07
2022-09-05T20:19:45.074Z,59.09
2022-09-05T20:22:47.086Z,59.47
2022-09-05T20:25:35.317Z,59.03
2022-09-05T20:28:12.505Z,59.19
2022-09-05T20:30:49.477Z,59.51
2022-09-05T20:33:20.019Z,59.59
2022-09-05T20:39:03.897Z,59.36
2022-09-05T20:43:15.705Z,59.38
2022-09-05T20:43:31.553Z,59.79
2022-09-05T20:44:25.142Z,59.79
2022-09-05T20:50:48.395Z,59.97
2022-09-05T20:54:05.910Z,59.54
2022-09-05T20:54:19.758Z,59.72
2022-09-05T20:55:43.171Z,59.97
2022-09-05T20:58:24.630Z,59.83
2022-09-05T21:01:20.057Z,59.98
2022-09-05T21:04:05.140Z,59.60
2022-09-05T21:06:35.015Z,59.56
2022-09-05T21:09:24.683Z,60.03
2022-09-05T21:11:54.503Z,60.06
2022-09-05T21:14:23.796Z,60.25
2022-09-05T21:17:14.977Z,61.13
2022-09-05T21:19:54.194Z,61.00
2022-09-05T21:22:21.435Z,60.66
2022-09-05T21:25:16.485Z,61.37
2022-09-05T21:27:58.895Z,60.96
2022-09-05T21:30:32.305Z,61.15
2022-09-05T21:33:29.484Z,60.96
2022-09-05T21:36:04.408Z,60.63
2022-09-05T21:38:40.855Z,61.31
2022-09-05T21:41:08.407Z,61.10
2022-09-05T21:47:42.448Z,61.33
2022-09-05T21:47:42.804Z,61.56
2022-09-05T21:49:18.899Z,61.01
2022-09-05T21:51:53.435Z,61.17
2022-09-05T21:59:11.657Z,61.36
2022-09-05T21:59:26.028Z,61.21
2022-09-05T22:00:14.635Z,61.16
2022-09-05T22:02:49.671Z,60.89
2022-09-05T22:05:17.365Z,61.18
2022-09-05T22:07:44.593Z,60.87
2022-09-05T22:10:12.255Z,61.08
2022-09-05T22:12:39.502Z,61.43
2022-09-05T22:15:28.949Z,61.36
2022-09-05T22:18:14.750Z,61.67
2022-09-05T22:20:53.467Z,61.80
2022-09-05T22:23:37.665Z,61.98
2022-09-05T22:26:07.885Z,61.87
2022-09-05T22:28:38.719Z,62.47
2022-09-05T22:31:07.707Z,62.27
2022-09-05T22:33:35.626Z,62.81
2022-09-05T22:36:02.965Z,62.30
2022-09-05T22:38:30.236Z,62.61
2022-09-05T22:40:57.805Z,62.92
2022-09-05T22:43:25.506Z,62.57
2022-09-05T22:45:56.370Z,63.04
2022-09-05T22:48:24.155Z,62.93
2022-09-05T22:50:51.226Z,63.18
2022-09-05T22:53:18.346Z,63.35
2022-09-05T22:55:45.432Z,63.26
2022-09-05T22:58:14.524Z,63.55
2022-09-05T23:00:41.979Z,63.78
2022-09-05T23:03:09.277Z,63.66
2022-09-05T23:05:36.386Z,63.85
2022-09-05T23:08:06.025Z,64.02
2022-09-05T23:10:33.511Z,63.75
2022-09-05T23:13:07.117Z,63.90
2022-09-05T23:15:35.637Z,63.61
2022-09-05T23:18:04.120Z,63.55
2022-09-05T23:20:32.587Z,63.61
2022-09-05T23:23:04.419Z,63.48
2022-09-05T23:25:32.209Z,63.96
2022-09-05T23:27:59.180Z,64.00
2022-09-05T23:30:26.169Z,63.80
2022-09-05T23:32:53.282Z,63.94
2022-09-05T23:35:20.660Z,63.88
2022-09-05T23:37:48.867Z,64.35
2022-09-05T23:40:18.048Z,63.89
2022-09-05T23:42:53.270Z,64.23
2022-09-05T23:45:20.539Z,64.37
2022-09-05T23:47:47.899Z,64.20
2022-09-05T23:50:15.727Z,64.74
2022-09-05T23:52:44.460Z,64.22
2022-09-05T23:55:13.639Z,64.43
2022-09-05T23:57:41.178Z,64.54
